sensor_id;sensor_type;location;lat;lon;timestamp;temperature;humidity
23783;DHT22;12071;50.850;4.446;2023-06-22T00:00:58;22.60;99.90
23783;DHT22;12071;50.850;4.446;2023-06-22T00:03:25;22.60;99.90
23783;DHT22;12071;50.850;4.446;2023-06-22T00:05:51;22.60;99.90
23783;DHT22;12071;50.850;4.446;2023-06-22T00:08:17;22.40;99.90
23783;DHT22;12071;50.850;4.446;2023-06-22T00:10:43;22.40;99.90
23783;DHT22;12071;50.850;4.446;2023-06-22T00:13:10;22.40;1.00
23783;DHT22;12071;50.850;4.446;2023-06-22T00:15:37;22.30;62.90
23783;DHT22;12071;50.850;4.446;2023-06-22T00:18:03;22.40;99.90
23783;DHT22;12071;50.850;4.446;2023-06-22T00:20:28;22.30;20.40
23783;DHT22;12071;50.850;4.446;2023-06-22T00:22:55;22.30;1.00
23783;DHT22;12071;50.850;4.446;2023-06-22T00:25:21;22.30;99.90
23783;DHT22;12071;50.850;4.446;2023-06-22T00:27:47;22.30;99.90
23783;DHT22;12071;50.850;4.446;2023-06-22T00:30:13;22.30;10.80
23783;DHT22;12071;50.850;4.446;2023-06-22T00:32:38;22.30;99.90
23783;DHT22;12071;50.850;4.446;2023-06-22T00:35:05;22.00;1.00
23783;DHT22;12071;50.850;4.446;2023-06-22T00:37:30;22.20;8.90
23783;DHT22;12071;50.850;4.446;2023-06-22T00:39:56;22.40;4.20
23783;DHT22;12071;50.850;4.446;2023-06-22T00:42:22;22.30;99.90
23783;DHT22;12071;50.850;4.446;2023-06-22T00:44:48;22.30;99.90
23783;DHT22;12071;50.850;4.446;2023-06-22T00:47:15;22.20;99.90
23783;DHT22;12071;50.850;4.446;2023-06-22T00:49:43;22.20;18.60
23783;DHT22;12071;50.850;4.446;2023-06-22T00:52:09;22.30;99.90
23783;DHT22;12071;50.850;4.446;2023-06-22T00:54:40;22.40;99.90
23783;DHT22;12071;50.850;4.446;2023-06-22T00:57:11;22.40;99.90
23783;DHT22;12071;50.850;4.446;2023-06-22T00:59:37;22.40;99.90
23783;DHT22;12071;50.850;4.446;2023-06-22T01:02:05;22.40;99.90
23783;DHT22;12071;50.850;4.446;2023-06-22T01:04:39;22.30;99.90
23783;DHT22;12071;50.850;4.446;2023-06-22T01:10:14;22.20;99.90
23783;DHT22;12071;50.850;4.446;2023-06-22T01:13:04;22.20;99.90
23783;DHT22;12071;50.850;4.446;2023-06-22T01:15:46;22.10;99.90
23783;DHT22;12071;50.850;4.446;2023-06-22T01:18:16;22.00;99.90
23783;DHT22;12071;50.850;4.446;2023-06-22T01:20:42;21.70;1.00
23783;DHT22;12071;50.850;4.446;2023-06-22T01:23:26;22.00;99.90
23783;DHT22;12071;50.850;4.446;2023-06-22T01:26:04;22.00;1.00
23783;DHT22;12071;50.850;4.446;2023-06-22T01:28:51;21.80;1.00
23783;DHT22;12071;50.850;4.446;2023-06-22T01:31:27;21.80;99.90
23783;DHT22;12071;50.850;4.446;2023-06-22T01:33:58;21.80;99.90
23783;DHT22;12071;50.850;4.446;2023-06-22T01:36:25;21.90;99.90
23783;DHT22;12071;50.850;4.446;2023-06-22T01:38:52;21.80;99.90
23783;DHT22;12071;50.850;4.446;2023-06-22T01:41:19;21.60;1.00
23783;DHT22;12071;50.850;4.446;2023-06-22T01:43:45;21.40;99.90
23783;DHT22;12071;50.850;4.446;2023-06-22T01:46:11;21.40;99.90
23783;DHT22;12071;50.850;4.446;2023-06-22T01:48:38;21.50;99.90
23783;DHT22;12071;50.850;4.446;2023-06-22T01:51:04;21.50;99.90
23783;DHT22;12071;50.850;4.446;2023-06-22T01:53:30;21.70;99.90
23783;DHT22;12071;50.850;4.446;2023-06-22T01:55:56;21.70;99.90
23783;DHT22;12071;50.850;4.446;2023-06-22T01:58:25;21.60;99.90
23783;DHT22;12071;50.850;4.446;2023-06-22T02:01:00;21.40;99.90
23783;DHT22;12071;50.850;4.446;2023-06-22T02:03:37;21.20;1.00
23783;DHT22;12071;50.850;4.446;2023-06-22T02:06:09;21.40;99.90
23783;DHT22;12071;50.850;4.446;2023-06-22T02:08:41;21.30;99.90
23783;DHT22;12071;50.850;4.446;2023-06-22T02:11:13;21.30;99.90
23783;DHT22;12071;50.850;4.446;2023-06-22T02:13:40;21.50;99.90
23783;DHT22;12071;50.850;4.446;2023-06-22T02:16:10;21.40;99.90
23783;DHT22;12071;50.850;4.446;2023-06-22T02:18:36;21.40;99.90
23783;DHT22;12071;50.850;4.446;2023-06-22T02:21:02;21.30;99.90
23783;DHT22;12071;50.850;4.446;2023-06-22T02:23:28;21.20;99.90
23783;DHT22;12071;50.850;4.446;2023-06-22T02:25:54;21.00;1.00
23783;DHT22;12071;50.850;4.446;2023-06-22T02:28:19;21.00;1.00
23783;DHT22;12071;50.850;4.446;2023-06-22T02:30:45;20.90;99.90
23783;DHT22;12071;50.850;4.446;2023-06-22T02:33:11;20.70;99.90
23783;DHT22;12071;50.850;4.446;2023-06-22T02:35:37;20.50;1.00
23783;DHT22;12071;50.850;4.446;2023-06-22T02:38:03;20.30;99.90
23783;DHT22;12071;50.850;4.446;2023-06-22T02:40:29;20.40;99.90
23783;DHT22;12071;50.850;4.446;2023-06-22T02:42:55;20.40;99.90
23783;DHT22;12071;50.850;4.446;2023-06-22T02:45:23;20.40;99.90
23783;DHT22;12071;50.850;4.446;2023-06-22T02:47:49;20.50;99.90
23783;DHT22;12071;50.850;4.446;2023-06-22T02:50:15;20.50;99.90
23783;DHT22;12071;50.850;4.446;2023-06-22T02:52:42;20.50;99.90
23783;DHT22;12071;50.850;4.446;2023-06-22T02:55:08;20.30;99.90
23783;DHT22;12071;50.850;4.446;2023-06-22T02:57:34;20.30;99.90
23783;DHT22;12071;50.850;4.446;2023-06-22T02:59:59;20.30;99.90
23783;DHT22;12071;50.850;4.446;2023-06-22T03:02:25;20.30;99.90
23783;DHT22;12071;50.850;4.446;2023-06-22T03:04:52;20.30;99.90
23783;DHT22;12071;50.850;4.446;2023-06-22T03:07:19;20.20;99.90
23783;DHT22;12071;50.850;4.446;2023-06-22T03:09:45;20.20;99.90
23783;DHT22;12071;50.850;4.446;2023-06-22T03:12:11;20.10;99.90
23783;DHT22;12071;50.850;4.446;2023-06-22T03:14:36;20.10;99.90
23783;DHT22;12071;50.850;4.446;2023-06-22T03:17:02;20.10;1.00
23783;DHT22;12071;50.850;4.446;2023-06-22T03:19:29;20.00;1.00
23783;DHT22;12071;50.850;4.446;2023-06-22T03:21:57;19.90;1.00
23783;DHT22;12071;50.850;4.446;2023-06-22T03:24:23;19.90;1.00
23783;DHT22;12071;50.850;4.446;2023-06-22T03:26:48;19.80;1.00
23783;DHT22;12071;50.850;4.446;2023-06-22T03:29:14;19.80;9.20
23783;DHT22;12071;50.850;4.446;2023-06-22T03:31:41;19.80;15.30
23783;DHT22;12071;50.850;4.446;2023-06-22T03:34:06;19.90;48.10
23783;DHT22;12071;50.850;4.446;2023-06-22T03:36:32;19.80;72.10
23783;DHT22;12071;50.850;4.446;2023-06-22T03:38:57;19.80;90.00
23783;DHT22;12071;50.850;4.446;2023-06-22T03:41:23;19.80;92.40
23783;DHT22;12071;50.850;4.446;2023-06-22T03:43:49;19.70;99.90
23783;DHT22;12071;50.850;4.446;2023-06-22T03:46:14;19.80;99.90
23783;DHT22;12071;50.850;4.446;2023-06-22T03:48:40;20.00;95.00
23783;DHT22;12071;50.850;4.446;2023-06-22T03:51:05;20.20;69.30
23783;DHT22;12071;50.850;4.446;2023-06-22T03:53:32;20.40;13.20
23783;DHT22;12071;50.850;4.446;2023-06-22T03:55:58;20.10;26.80
23783;DHT22;12071;50.850;4.446;2023-06-22T03:58:23;20.10;54.00
23783;DHT22;12071;50.850;4.446;2023-06-22T04:00:51;20.10;69.80
23783;DHT22;12071;50.850;4.446;2023-06-22T04:03:17;20.00;73.70
23783;DHT22;12071;50.850;4.446;2023-06-22T04:05:46;20.20;99.90
23783;DHT22;12071;50.850;4.446;2023-06-22T04:08:13;20.10;98.20
23783;DHT22;12071;50.850;4.446;2023-06-22T04:10:39;20.30;61.80
23783;DHT22;12071;50.850;4.446;2023-06-22T04:13:05;20.30;99.90
23783;DHT22;12071;50.850;4.446;2023-06-22T04:15:30;20.40;96.60
23783;DHT22;12071;50.850;4.446;2023-06-22T04:17:56;20.60;13.70
23783;DHT22;12071;50.850;4.446;2023-06-22T04:20:22;21.00;1.00
23783;DHT22;12071;50.850;4.446;2023-06-22T04:22:51;20.80;1.00
23783;DHT22;12071;50.850;4.446;2023-06-22T04:25:17;20.70;1.00
23783;DHT22;12071;50.850;4.446;2023-06-22T04:27:43;21.10;1.00
23783;DHT22;12071;50.850;4.446;2023-06-22T04:30:08;20.90;99.90
23783;DHT22;12071;50.850;4.446;2023-06-22T04:32:35;20.70;1.00
23783;DHT22;12071;50.850;4.446;2023-06-22T04:35:05;20.90;1.00
23783;DHT22;12071;50.850;4.446;2023-06-22T04:37:32;21.40;99.90
23783;DHT22;12071;50.850;4.446;2023-06-22T04:39:58;21.40;99.90
23783;DHT22;12071;50.850;4.446;2023-06-22T04:42:27;20.80;99.90
23783;DHT22;12071;50.850;4.446;2023-06-22T04:44:53;20.80;1.00
23783;DHT22;12071;50.850;4.446;2023-06-22T04:47:20;20.70;1.00
23783;DHT22;12071;50.850;4.446;2023-06-22T04:49:45;20.50;1.00
23783;DHT22;12071;50.850;4.446;2023-06-22T04:52:13;20.50;43.80
23783;DHT22;12071;50.850;4.446;2023-06-22T04:54:40;20.50;97.60
23783;DHT22;12071;50.850;4.446;2023-06-22T04:57:13;20.50;99.90
23783;DHT22;12071;50.850;4.446;2023-06-22T04:59:40;20.60;99.90
23783;DHT22;12071;50.850;4.446;2023-06-22T05:02:07;20.50;99.90
23783;DHT22;12071;50.850;4.446;2023-06-22T05:04:33;20.40;99.90
23783;DHT22;12071;50.850;4.446;2023-06-22T05:07:02;20.40;99.90
23783;DHT22;12071;50.850;4.446;2023-06-22T05:09:29;20.40;99.90
23783;DHT22;12071;50.850;4.446;2023-06-22T05:11:55;20.40;99.90
23783;DHT22;12071;50.850;4.446;2023-06-22T05:14:22;20.60;99.90
23783;DHT22;12071;50.850;4.446;2023-06-22T05:16:48;20.70;99.90
23783;DHT22;12071;50.850;4.446;2023-06-22T05:19:14;21.20;99.90
23783;DHT22;12071;50.850;4.446;2023-06-22T05:21:40;21.60;99.90
23783;DHT22;12071;50.850;4.446;2023-06-22T05:24:05;21.20;99.90
23783;DHT22;12071;50.850;4.446;2023-06-22T05:26:33;21.00;99.90
23783;DHT22;12071;50.850;4.446;2023-06-22T05:28:59;20.70;99.90
23783;DHT22;12071;50.850;4.446;2023-06-22T05:31:26;20.50;99.90
23783;DHT22;12071;50.850;4.446;2023-06-22T05:33:53;20.40;99.90
23783;DHT22;12071;50.850;4.446;2023-06-22T05:36:19;20.50;99.90
23783;DHT22;12071;50.850;4.446;2023-06-22T05:38:47;20.40;99.90
23783;DHT22;12071;50.850;4.446;2023-06-22T05:41:12;20.50;99.90
23783;DHT22;12071;50.850;4.446;2023-06-22T05:43:39;20.40;99.90
23783;DHT22;12071;50.850;4.446;2023-06-22T05:46:05;20.10;99.90
23783;DHT22;12071;50.850;4.446;2023-06-22T05:48:30;20.00;99.90
23783;DHT22;12071;50.850;4.446;2023-06-22T05:50:56;20.10;99.90
23783;DHT22;12071;50.850;4.446;2023-06-22T05:53:22;20.50;99.90
23783;DHT22;12071;50.850;4.446;2023-06-22T05:55:47;20.40;99.90
23783;DHT22;12071;50.850;4.446;2023-06-22T05:58:13;20.20;99.90
23783;DHT22;12071;50.850;4.446;2023-06-22T06:00:39;20.10;99.90
23783;DHT22;12071;50.850;4.446;2023-06-22T06:03:06;20.00;99.90
23783;DHT22;12071;50.850;4.446;2023-06-22T06:05:33;19.80;99.90
23783;DHT22;12071;50.850;4.446;2023-06-22T06:08:00;19.60;1.00
23783;DHT22;12071;50.850;4.446;2023-06-22T06:10:26;19.80;1.00
23783;DHT22;12071;50.850;4.446;2023-06-22T06:12:52;19.90;1.00
23783;DHT22;12071;50.850;4.446;2023-06-22T06:15:18;19.90;1.00
23783;DHT22;12071;50.850;4.446;2023-06-22T06:17:51;20.00;1.00
23783;DHT22;12071;50.850;4.446;2023-06-22T06:20:22;20.10;1.00
23783;DHT22;12071;50.850;4.446;2023-06-22T06:22:49;20.00;1.00
23783;DHT22;12071;50.850;4.446;2023-06-22T06:25:15;20.10;1.00
23783;DHT22;12071;50.850;4.446;2023-06-22T06:27:48;20.10;1.00
23783;DHT22;12071;50.850;4.446;2023-06-22T06:30:16;20.10;1.00
23783;DHT22;12071;50.850;4.446;2023-06-22T06:32:43;20.30;1.00
23783;DHT22;12071;50.850;4.446;2023-06-22T06:35:11;20.60;1.00
23783;DHT22;12071;50.850;4.446;2023-06-22T06:37:39;21.00;1.00
23783;DHT22;12071;50.850;4.446;2023-06-22T06:40:09;21.10;1.00
23783;DHT22;12071;50.850;4.446;2023-06-22T06:42:40;21.30;1.00
23783;DHT22;12071;50.850;4.446;2023-06-22T06:45:08;21.30;1.00
23783;DHT22;12071;50.850;4.446;2023-06-22T06:47:34;21.40;99.90
23783;DHT22;12071;50.850;4.446;2023-06-22T06:50:00;21.50;99.90
23783;DHT22;12071;50.850;4.446;2023-06-22T06:52:25;21.70;99.90
23783;DHT22;12071;50.850;4.446;2023-06-22T06:54:51;21.60;99.90
23783;DHT22;12071;50.850;4.446;2023-06-22T06:57:18;21.50;99.90
23783;DHT22;12071;50.850;4.446;2023-06-22T06:59:44;21.40;99.90
23783;DHT22;12071;50.850;4.446;2023-06-22T07:02:09;21.80;99.90
23783;DHT22;12071;50.850;4.446;2023-06-22T07:04:35;22.30;99.90
23783;DHT22;12071;50.850;4.446;2023-06-22T07:07:02;22.20;99.90
23783;DHT22;12071;50.850;4.446;2023-06-22T07:09:28;22.00;99.90
23783;DHT22;12071;50.850;4.446;2023-06-22T07:11:53;21.90;99.90
23783;DHT22;12071;50.850;4.446;2023-06-22T07:14:19;21.80;99.90
23783;DHT22;12071;50.850;4.446;2023-06-22T07:16:44;21.60;99.90
23783;DHT22;12071;50.850;4.446;2023-06-22T07:19:12;21.70;99.90
23783;DHT22;12071;50.850;4.446;2023-06-22T07:21:38;21.60;99.90
23783;DHT22;12071;50.850;4.446;2023-06-22T07:24:05;21.40;99.90
23783;DHT22;12071;50.850;4.446;2023-06-22T07:26:32;21.50;99.90
23783;DHT22;12071;50.850;4.446;2023-06-22T07:28:57;21.60;99.90
23783;DHT22;12071;50.850;4.446;2023-06-22T07:31:26;21.80;99.90
23783;DHT22;12071;50.850;4.446;2023-06-22T07:33:51;22.00;99.90
23783;DHT22;12071;50.850;4.446;2023-06-22T07:36:18;22.30;99.90
23783;DHT22;12071;50.850;4.446;2023-06-22T07:38:44;22.30;99.90
23783;DHT22;12071;50.850;4.446;2023-06-22T07:41:09;22.30;99.90
23783;DHT22;12071;50.850;4.446;2023-06-22T07:43:35;22.20;99.90
23783;DHT22;12071;50.850;4.446;2023-06-22T07:46:03;22.30;99.90
23783;DHT22;12071;50.850;4.446;2023-06-22T07:48:29;22.50;99.90
23783;DHT22;12071;50.850;4.446;2023-06-22T07:50:55;22.80;99.90
23783;DHT22;12071;50.850;4.446;2023-06-22T07:53:21;23.00;99.90
23783;DHT22;12071;50.850;4.446;2023-06-22T07:55:47;23.20;99.90
23783;DHT22;12071;50.850;4.446;2023-06-22T07:58:13;23.10;99.90
23783;DHT22;12071;50.850;4.446;2023-06-22T08:00:38;22.90;99.90
23783;DHT22;12071;50.850;4.446;2023-06-22T08:03:04;22.90;99.90
23783;DHT22;12071;50.850;4.446;2023-06-22T08:05:30;22.40;99.90
23783;DHT22;12071;50.850;4.446;2023-06-22T08:07:57;22.40;99.90
23783;DHT22;12071;50.850;4.446;2023-06-22T08:10:23;22.30;99.90
23783;DHT22;12071;50.850;4.446;2023-06-22T08:12:48;22.20;99.90
23783;DHT22;12071;50.850;4.446;2023-06-22T08:15:14;22.20;99.90
23783;DHT22;12071;50.850;4.446;2023-06-22T08:17:40;22.10;99.90
23783;DHT22;12071;50.850;4.446;2023-06-22T08:20:06;22.20;99.90
23783;DHT22;12071;50.850;4.446;2023-06-22T08:22:35;22.30;99.90
23783;DHT22;12071;50.850;4.446;2023-06-22T08:25:02;22.10;99.90
23783;DHT22;12071;50.850;4.446;2023-06-22T08:27:29;21.80;99.90
23783;DHT22;12071;50.850;4.446;2023-06-22T08:29:57;21.80;99.90
23783;DHT22;12071;50.850;4.446;2023-06-22T08:32:27;21.60;99.90
23783;DHT22;12071;50.850;4.446;2023-06-22T08:34:54;21.70;99.90
23783;DHT22;12071;50.850;4.446;2023-06-22T08:37:20;21.90;99.90
23783;DHT22;12071;50.850;4.446;2023-06-22T08:39:56;21.60;99.90
23783;DHT22;12071;50.850;4.446;2023-06-22T08:42:22;21.70;99.90
23783;DHT22;12071;50.850;4.446;2023-06-22T08:44:48;21.50;99.90
23783;DHT22;12071;50.850;4.446;2023-06-22T08:47:14;21.50;99.90
23783;DHT22;12071;50.850;4.446;2023-06-22T08:49:39;21.60;99.90
23783;DHT22;12071;50.850;4.446;2023-06-22T08:52:05;21.80;99.90
23783;DHT22;12071;50.850;4.446;2023-06-22T08:54:31;21.70;99.90
23783;DHT22;12071;50.850;4.446;2023-06-22T08:56:58;21.50;99.90
23783;DHT22;12071;50.850;4.446;2023-06-22T08:59:23;21.30;99.90
23783;DHT22;12071;50.850;4.446;2023-06-22T09:01:49;21.40;99.90
23783;DHT22;12071;50.850;4.446;2023-06-22T09:04:15;21.60;99.90
23783;DHT22;12071;50.850;4.446;2023-06-22T09:06:40;21.80;99.90
23783;DHT22;12071;50.850;4.446;2023-06-22T09:09:11;21.80;99.90
23783;DHT22;12071;50.850;4.446;2023-06-22T09:11:37;21.90;99.90
23783;DHT22;12071;50.850;4.446;2023-06-22T09:14:03;22.00;99.90
23783;DHT22;12071;50.850;4.446;2023-06-22T09:16:29;22.10;99.90
23783;DHT22;12071;50.850;4.446;2023-06-22T09:18:54;21.80;99.90
23783;DHT22;12071;50.850;4.446;2023-06-22T09:21:20;21.80;99.90
23783;DHT22;12071;50.850;4.446;2023-06-22T09:23:46;21.90;99.90
23783;DHT22;12071;50.850;4.446;2023-06-22T09:26:15;22.10;99.90
23783;DHT22;12071;50.850;4.446;2023-06-22T09:28:41;21.80;99.90
23783;DHT22;12071;50.850;4.446;2023-06-22T09:31:06;21.70;99.90
23783;DHT22;12071;50.850;4.446;2023-06-22T09:33:32;21.70;99.90
23783;DHT22;12071;50.850;4.446;2023-06-22T09:35:58;21.60;99.90
23783;DHT22;12071;50.850;4.446;2023-06-22T09:38:23;21.60;99.90
23783;DHT22;12071;50.850;4.446;2023-06-22T09:40:49;21.80;99.90
23783;DHT22;12071;50.850;4.446;2023-06-22T09:43:14;22.30;99.90
23783;DHT22;12071;50.850;4.446;2023-06-22T09:45:40;22.30;99.90
23783;DHT22;12071;50.850;4.446;2023-06-22T09:48:06;22.00;99.90
23783;DHT22;12071;50.850;4.446;2023-06-22T09:50:31;21.70;99.90
23783;DHT22;12071;50.850;4.446;2023-06-22T09:52:57;21.10;99.90
23783;DHT22;12071;50.850;4.446;2023-06-22T09:55:22;20.80;99.90
23783;DHT22;12071;50.850;4.446;2023-06-22T09:57:48;20.50;99.90
23783;DHT22;12071;50.850;4.446;2023-06-22T10:00:16;20.40;99.90
23783;DHT22;12071;50.850;4.446;2023-06-22T10:02:42;20.60;99.90
23783;DHT22;12071;50.850;4.446;2023-06-22T10:05:08;20.50;99.90
23783;DHT22;12071;50.850;4.446;2023-06-22T10:07:34;20.10;99.90
23783;DHT22;12071;50.850;4.446;2023-06-22T10:09:59;20.10;99.90
23783;DHT22;12071;50.850;4.446;2023-06-22T10:12:27;20.00;1.00
23783;DHT22;12071;50.850;4.446;2023-06-22T10:14:52;20.40;99.90
23783;DHT22;12071;50.850;4.446;2023-06-22T10:17:18;20.30;99.90
23783;DHT22;12071;50.850;4.446;2023-06-22T10:19:44;20.10;99.90
23783;DHT22;12071;50.850;4.446;2023-06-22T10:22:09;20.70;1.00
23783;DHT22;12071;50.850;4.446;2023-06-22T10:24:35;20.70;99.90
23783;DHT22;12071;50.850;4.446;2023-06-22T10:27:00;20.40;99.90
23783;DHT22;12071;50.850;4.446;2023-06-22T10:29:26;20.10;1.00
23783;DHT22;12071;50.850;4.446;2023-06-22T10:31:52;20.00;1.00
23783;DHT22;12071;50.850;4.446;2023-06-22T10:34:17;20.10;1.00
23783;DHT22;12071;50.850;4.446;2023-06-22T10:36:43;20.00;1.00
23783;DHT22;12071;50.850;4.446;2023-06-22T10:39:11;20.40;1.00
23783;DHT22;12071;50.850;4.446;2023-06-22T10:41:37;20.50;1.00
23783;DHT22;12071;50.850;4.446;2023-06-22T10:44:02;20.40;1.00
23783;DHT22;12071;50.850;4.446;2023-06-22T10:46:28;20.30;99.90
23783;DHT22;12071;50.850;4.446;2023-06-22T10:48:54;20.30;1.00
23783;DHT22;12071;50.850;4.446;2023-06-22T10:51:21;20.60;1.00
23783;DHT22;12071;50.850;4.446;2023-06-22T10:53:46;20.40;1.00
23783;DHT22;12071;50.850;4.446;2023-06-22T10:56:12;20.20;1.00
23783;DHT22;12071;50.850;4.446;2023-06-22T10:58:38;20.50;1.00
23783;DHT22;12071;50.850;4.446;2023-06-22T11:01:03;20.40;1.00
23783;DHT22;12071;50.850;4.446;2023-06-22T11:03:29;20.50;1.00
23783;DHT22;12071;50.850;4.446;2023-06-22T11:05:55;20.30;1.00
23783;DHT22;12071;50.850;4.446;2023-06-22T11:08:20;20.30;1.00
23783;DHT22;12071;50.850;4.446;2023-06-22T11:10:46;20.30;1.00
23783;DHT22;12071;50.850;4.446;2023-06-22T11:13:11;20.50;1.00
23783;DHT22;12071;50.850;4.446;2023-06-22T11:15:37;20.60;1.00
23783;DHT22;12071;50.850;4.446;2023-06-22T11:18:03;20.70;1.00
23783;DHT22;12071;50.850;4.446;2023-06-22T11:20:31;20.90;1.00
23783;DHT22;12071;50.850;4.446;2023-06-22T11:22:56;20.90;1.00
23783;DHT22;12071;50.850;4.446;2023-06-22T11:25:22;20.90;1.00
23783;DHT22;12071;50.850;4.446;2023-06-22T11:27:47;21.00;1.00
23783;DHT22;12071;50.850;4.446;2023-06-22T11:30:13;20.70;1.00
23783;DHT22;12071;50.850;4.446;2023-06-22T11:32:39;20.70;1.00
23783;DHT22;12071;50.850;4.446;2023-06-22T11:35:05;20.80;1.00
23783;DHT22;12071;50.850;4.446;2023-06-22T11:37:30;20.70;1.00
23783;DHT22;12071;50.850;4.446;2023-06-22T11:39:56;20.70;1.00
23783;DHT22;12071;50.850;4.446;2023-06-22T11:42:22;21.10;1.00
23783;DHT22;12071;50.850;4.446;2023-06-22T11:44:49;21.00;99.90
23783;DHT22;12071;50.850;4.446;2023-06-22T11:47:14;20.70;1.00
23783;DHT22;12071;50.850;4.446;2023-06-22T11:49:41;21.00;1.00
23783;DHT22;12071;50.850;4.446;2023-06-22T11:52:07;20.90;99.90
23783;DHT22;12071;50.850;4.446;2023-06-22T11:54:32;20.50;1.00
23783;DHT22;12071;50.850;4.446;2023-06-22T11:56:59;20.50;1.00
23783;DHT22;12071;50.850;4.446;2023-06-22T11:59:24;20.30;1.00
23783;DHT22;12071;50.850;4.446;2023-06-22T12:01:50;20.40;1.00
23783;DHT22;12071;50.850;4.446;2023-06-22T12:04:16;20.20;1.00
23783;DHT22;12071;50.850;4.446;2023-06-22T12:06:42;20.10;1.00
23783;DHT22;12071;50.850;4.446;2023-06-22T12:09:09;20.00;1.00
23783;DHT22;12071;50.850;4.446;2023-06-22T12:11:35;20.00;1.00
23783;DHT22;12071;50.850;4.446;2023-06-22T12:14:00;20.00;1.00
23783;DHT22;12071;50.850;4.446;2023-06-22T12:16:30;20.30;1.00
23783;DHT22;12071;50.850;4.446;2023-06-22T12:18:56;20.30;1.00
23783;DHT22;12071;50.850;4.446;2023-06-22T12:21:21;20.20;1.00
23783;DHT22;12071;50.850;4.446;2023-06-22T12:23:47;20.30;1.00
23783;DHT22;12071;50.850;4.446;2023-06-22T12:26:13;20.10;1.00
23783;DHT22;12071;50.850;4.446;2023-06-22T12:28:38;20.10;1.00
23783;DHT22;12071;50.850;4.446;2023-06-22T12:31:04;20.20;1.00
23783;DHT22;12071;50.850;4.446;2023-06-22T12:33:29;20.20;1.00
23783;DHT22;12071;50.850;4.446;2023-06-22T12:35:56;20.40;1.00
23783;DHT22;12071;50.850;4.446;2023-06-22T12:38:22;20.30;1.00
23783;DHT22;12071;50.850;4.446;2023-06-22T12:40:47;20.40;1.00
23783;DHT22;12071;50.850;4.446;2023-06-22T12:43:16;20.50;1.00
23783;DHT22;12071;50.850;4.446;2023-06-22T12:45:41;20.60;1.00
23783;DHT22;12071;50.850;4.446;2023-06-22T12:48:07;20.40;1.00
23783;DHT22;12071;50.850;4.446;2023-06-22T12:50:34;20.40;1.00
23783;DHT22;12071;50.850;4.446;2023-06-22T12:52:59;20.30;1.00
23783;DHT22;12071;50.850;4.446;2023-06-22T12:55:27;20.30;1.00
23783;DHT22;12071;50.850;4.446;2023-06-22T12:57:53;20.60;1.00
23783;DHT22;12071;50.850;4.446;2023-06-22T13:00:18;20.50;1.00
23783;DHT22;12071;50.850;4.446;2023-06-22T13:02:45;20.20;1.00
23783;DHT22;12071;50.850;4.446;2023-06-22T13:05:10;20.10;1.00
23783;DHT22;12071;50.850;4.446;2023-06-22T13:07:36;20.30;1.00
23783;DHT22;12071;50.850;4.446;2023-06-22T13:10:02;20.40;1.00
23783;DHT22;12071;50.850;4.446;2023-06-22T13:12:28;20.30;1.00
23783;DHT22;12071;50.850;4.446;2023-06-22T13:14:54;20.00;1.00
23783;DHT22;12071;50.850;4.446;2023-06-22T13:17:20;20.20;1.00
23783;DHT22;12071;50.850;4.446;2023-06-22T13:19:46;20.40;1.00
23783;DHT22;12071;50.850;4.446;2023-06-22T13:22:35;20.30;1.00
23783;DHT22;12071;50.850;4.446;2023-06-22T13:25:06;20.20;1.00
23783;DHT22;12071;50.850;4.446;2023-06-22T13:27:32;20.20;1.00
23783;DHT22;12071;50.850;4.446;2023-06-22T13:29:57;20.30;1.00
23783;DHT22;12071;50.850;4.446;2023-06-22T13:32:23;20.00;1.00
23783;DHT22;12071;50.850;4.446;2023-06-22T13:34:49;20.10;1.00
23783;DHT22;12071;50.850;4.446;2023-06-22T13:37:15;20.30;1.00
23783;DHT22;12071;50.850;4.446;2023-06-22T13:39:41;20.30;1.00
23783;DHT22;12071;50.850;4.446;2023-06-22T13:42:07;20.10;1.00
23783;DHT22;12071;50.850;4.446;2023-06-22T13:44:34;20.00;1.00
23783;DHT22;12071;50.850;4.446;2023-06-22T13:47:00;20.00;1.00
23783;DHT22;12071;50.850;4.446;2023-06-22T13:49:25;19.70;1.00
23783;DHT22;12071;50.850;4.446;2023-06-22T13:51:51;19.70;1.00
23783;DHT22;12071;50.850;4.446;2023-06-22T13:54:17;19.80;1.00
23783;DHT22;12071;50.850;4.446;2023-06-22T13:56:42;19.70;1.00
23783;DHT22;12071;50.850;4.446;2023-06-22T13:59:08;19.80;1.00
23783;DHT22;12071;50.850;4.446;2023-06-22T14:01:36;19.70;1.00
23783;DHT22;12071;50.850;4.446;2023-06-22T14:04:04;19.60;1.00
23783;DHT22;12071;50.850;4.446;2023-06-22T14:06:29;19.60;1.00
23783;DHT22;12071;50.850;4.446;2023-06-22T14:08:55;19.40;1.00
23783;DHT22;12071;50.850;4.446;2023-06-22T14:11:21;19.40;1.00
23783;DHT22;12071;50.850;4.446;2023-06-22T14:13:47;19.30;1.00
23783;DHT22;12071;50.850;4.446;2023-06-22T14:16:12;19.40;1.00
23783;DHT22;12071;50.850;4.446;2023-06-22T14:18:38;19.50;1.00
23783;DHT22;12071;50.850;4.446;2023-06-22T14:21:04;19.40;1.00
23783;DHT22;12071;50.850;4.446;2023-06-22T14:23:29;19.60;1.00
23783;DHT22;12071;50.850;4.446;2023-06-22T14:25:55;19.70;1.00
23783;DHT22;12071;50.850;4.446;2023-06-22T14:28:20;19.60;1.00
23783;DHT22;12071;50.850;4.446;2023-06-22T14:30:46;19.60;1.00
23783;DHT22;12071;50.850;4.446;2023-06-22T14:33:12;19.60;1.00
23783;DHT22;12071;50.850;4.446;2023-06-22T14:35:38;19.60;1.00
23783;DHT22;12071;50.850;4.446;2023-06-22T14:38:04;19.60;1.00
23783;DHT22;12071;50.850;4.446;2023-06-22T14:40:29;19.40;1.00
23783;DHT22;12071;50.850;4.446;2023-06-22T14:42:55;19.30;1.00
23783;DHT22;12071;50.850;4.446;2023-06-22T14:45:22;19.50;1.00
23783;DHT22;12071;50.850;4.446;2023-06-22T14:47:48;19.30;1.00
23783;DHT22;12071;50.850;4.446;2023-06-22T14:50:14;19.20;1.00
23783;DHT22;12071;50.850;4.446;2023-06-22T14:52:40;19.20;1.00
23783;DHT22;12071;50.850;4.446;2023-06-22T14:55:06;19.10;1.00
23783;DHT22;12071;50.850;4.446;2023-06-22T14:57:31;19.30;1.00
23783;DHT22;12071;50.850;4.446;2023-06-22T14:59:57;19.30;1.00
23783;DHT22;12071;50.850;4.446;2023-06-22T15:02:23;19.30;1.00
23783;DHT22;12071;50.850;4.446;2023-06-22T15:04:48;19.50;1.00
23783;DHT22;12071;50.850;4.446;2023-06-22T15:07:14;19.50;1.00
23783;DHT22;12071;50.850;4.446;2023-06-22T15:09:40;19.80;1.00
23783;DHT22;12071;50.850;4.446;2023-06-22T15:12:08;19.80;1.00
23783;DHT22;12071;50.850;4.446;2023-06-22T15:14:40;19.80;1.00
23783;DHT22;12071;50.850;4.446;2023-06-22T15:17:09;19.70;1.00
23783;DHT22;12071;50.850;4.446;2023-06-22T15:19:35;19.60;1.00
23783;DHT22;12071;50.850;4.446;2023-06-22T15:22:06;19.80;1.00
23783;DHT22;12071;50.850;4.446;2023-06-22T15:24:33;19.90;1.00
23783;DHT22;12071;50.850;4.446;2023-06-22T15:26:58;19.90;1.00
23783;DHT22;12071;50.850;4.446;2023-06-22T15:29:24;20.00;1.00
23783;DHT22;12071;50.850;4.446;2023-06-22T15:31:51;20.00;1.00
23783;DHT22;12071;50.850;4.446;2023-06-22T15:34:17;20.10;1.00
23783;DHT22;12071;50.850;4.446;2023-06-22T15:36:42;20.10;1.00